sensor_id;sensor_type;location;lat;lon;timestamp;pressure;altitude;pressure_sealevel;temperature;humidity
43691;BME280;29293;52.190;21.226;2023-02-23T00:04:09;100898.83;;;-1.73;100.00
43691;BME280;29293;52.190;21.226;2023-02-23T00:19:18;100888.94;;;-1.71;100.00
43691;BME280;29293;52.190;21.226;2023-02-23T00:34:30;100884.51;;;-1.74;100.00
43691;BME280;29293;52.190;21.226;2023-02-23T00:49:40;100882.64;;;-1.79;100.00
43691;BME280;29293;52.190;21.226;2023-02-23T01:04:51;100878.97;;;-1.83;100.00
43691;BME280;29293;52.190;21.226;2023-02-23T01:20:00;100862.38;;;-1.84;100.00
43691;BME280;29293;52.190;21.226;2023-02-23T01:35:14;100857.70;;;-1.80;100.00
43691;BME280;29293;52.190;21.226;2023-02-23T01:50:25;100846.13;;;-1.79;100.00
43691;BME280;29293;52.190;21.226;2023-02-23T02:05:46;100828.38;;;-1.86;100.00
43691;BME280;29293;52.190;21.226;2023-02-23T02:37:10;100818.73;;;-1.91;100.00
43691;BME280;29293;52.190;21.226;2023-02-23T02:52:30;100816.63;;;-2.10;100.00
43691;BME280;29293;52.190;21.226;2023-02-23T03:07:47;100811.48;;;-2.17;100.00
43691;BME280;29293;52.190;21.226;2023-02-23T03:23:19;100816.86;;;-2.28;100.00
43691;BME280;29293;52.190;21.226;2023-02-23T03:39:12;100814.55;;;-2.57;100.00
43691;BME280;29293;52.190;21.226;2023-02-23T03:54:44;100818.64;;;-2.84;100.00
43691;BME280;29293;52.190;21.226;2023-02-23T04:10:15;100826.84;;;-3.02;100.00
43691;BME280;29293;52.190;21.226;2023-02-23T04:25:41;100830.72;;;-2.92;100.00
43691;BME280;29293;52.190;21.226;2023-02-23T04:40:56;100824.16;;;-2.68;100.00
43691;BME280;29293;52.190;21.226;2023-02-23T04:56:04;100813.92;;;-2.42;100.00
43691;BME280;29293;52.190;21.226;2023-02-23T05:11:14;100814.81;;;-2.26;100.00
43691;BME280;29293;52.190;21.226;2023-02-23T05:26:33;100808.35;;;-2.15;100.00
43691;BME280;29293;52.190;21.226;2023-02-23T05:41:44;100811.81;;;-2.00;100.00
43691;BME280;29293;52.190;21.226;2023-02-23T05:56:55;100814.23;;;-1.87;100.00
43691;BME280;29293;52.190;21.226;2023-02-23T06:12:05;100823.20;;;-1.76;100.00
43691;BME280;29293;52.190;21.226;2023-02-23T06:27:15;100827.18;;;-1.61;100.00
43691;BME280;29293;52.190;21.226;2023-02-23T06:42:24;100832.55;;;-1.47;100.00
43691;BME280;29293;52.190;21.226;2023-02-23T06:57:32;100835.84;;;-1.36;100.00
43691;BME280;29293;52.190;21.226;2023-02-23T07:12:42;100832.49;;;-1.21;100.00
43691;BME280;29293;52.190;21.226;2023-02-23T07:27:51;100826.42;;;-1.00;100.00
43691;BME280;29293;52.190;21.226;2023-02-23T07:43:02;100823.82;;;-0.77;100.00
43691;BME280;29293;52.190;21.226;2023-02-23T07:58:10;100814.87;;;-0.55;100.00
43691;BME280;29293;52.190;21.226;2023-02-23T08:13:22;100797.17;;;-0.26;100.00
43691;BME280;29293;52.190;21.226;2023-02-23T08:28:31;100781.61;;;0.09;100.00
43691;BME280;29293;52.190;21.226;2023-02-23T08:43:52;100764.13;;;0.47;100.00
43691;BME280;29293;52.190;21.226;2023-02-23T08:59:01;100754.25;;;0.89;100.00
43691;BME280;29293;52.190;21.226;2023-02-23T09:14:11;100739.06;;;1.25;100.00
43691;BME280;29293;52.190;21.226;2023-02-23T09:29:20;100724.85;;;1.57;100.00
43691;BME280;29293;52.190;21.226;2023-02-23T09:44:46;100711.98;;;1.94;100.00
43691;BME280;29293;52.190;21.226;2023-02-23T09:59:59;100694.86;;;2.63;100.00
43691;BME280;29293;52.190;21.226;2023-02-23T10:15:18;100682.00;;;3.22;100.00
43691;BME280;29293;52.190;21.226;2023-02-23T10:30:33;100667.23;;;3.52;100.00
43691;BME280;29293;52.190;21.226;2023-02-23T10:45:46;100642.52;;;3.94;100.00
43691;BME280;29293;52.190;21.226;2023-02-23T11:01:03;100617.35;;;4.26;100.00
43691;BME280;29293;52.190;21.226;2023-02-23T11:16:16;100588.33;;;4.44;100.00
43691;BME280;29293;52.190;21.226;2023-02-23T11:31:52;100562.65;;;4.66;100.00
43691;BME280;29293;52.190;21.226;2023-02-23T11:47:25;100543.96;;;5.05;100.00
43691;BME280;29293;52.190;21.226;2023-02-23T12:03:00;100522.77;;;5.01;100.00
43691;BME280;29293;52.190;21.226;2023-02-23T12:18:38;100498.69;;;5.08;100.00
43691;BME280;29293;52.190;21.226;2023-02-23T12:33:56;100474.98;;;5.02;100.00
43691;BME280;29293;52.190;21.226;2023-02-23T12:49:14;100454.45;;;5.15;100.00
43691;BME280;29293;52.190;21.226;2023-02-23T13:04:42;100435.19;;;5.35;100.00
43691;BME280;29293;52.190;21.226;2023-02-23T13:20:36;100414.08;;;5.25;100.00
43691;BME280;29293;52.190;21.226;2023-02-23T13:35:47;100395.66;;;5.20;100.00
43691;BME280;29293;52.190;21.226;2023-02-23T13:51:04;100379.14;;;5.13;100.00
43691;BME280;29293;52.190;21.226;2023-02-23T14:06:24;100353.69;;;4.89;100.00
43691;BME280;29293;52.190;21.226;2023-02-23T14:21:40;100340.10;;;4.79;100.00
43691;BME280;29293;52.190;21.226;2023-02-23T14:37:22;100327.17;;;4.67;100.00
43691;BME280;29293;52.190;21.226;2023-02-23T14:52:46;100307.70;;;4.53;100.00
43691;BME280;29293;52.190;21.226;2023-02-23T15:08:10;100290.82;;;4.35;100.00
43691;BME280;29293;52.190;21.226;2023-02-23T15:23:26;100283.95;;;4.18;100.00
43691;BME280;29293;52.190;21.226;2023-02-23T15:38:56;100267.13;;;3.96;100.00
43691;BME280;29293;52.190;21.226;2023-02-23T15:54:17;100242.06;;;3.61;100.00
43691;BME280;29293;52.190;21.226;2023-02-23T16:09:30;100226.70;;;3.14;100.00
43691;BME280;29293;52.190;21.226;2023-02-23T16:24:39;100217.88;;;2.69;100.00
43691;BME280;29293;52.190;21.226;2023-02-23T16:39:51;100206.01;;;2.18;100.00
43691;BME280;29293;52.190;21.226;2023-02-23T16:55:05;100210.70;;;1.78;100.00
43691;BME280;29293;52.190;21.226;2023-02-23T17:11:00;100201.27;;;1.40;100.00
43691;BME280;29293;52.190;21.226;2023-02-23T17:26:35;100171.63;;;1.02;100.00
43691;BME280;29293;52.190;21.226;2023-02-23T17:42:09;100170.66;;;0.74;100.00
43691;BME280;29293;52.190;21.226;2023-02-23T17:58:06;100141.77;;;0.51;100.00
43691;BME280;29293;52.190;21.226;2023-02-23T18:29:27;100101.33;;;0.65;100.00
43691;BME280;29293;52.190;21.226;2023-02-23T18:44:39;100082.80;;;0.77;100.00
43691;BME280;29293;52.190;21.226;2023-02-23T18:59:53;100064.27;;;0.83;100.00
43691;BME280;29293;52.190;21.226;2023-02-23T19:15:23;100035.67;;;0.82;100.00
43691;BME280;29293;52.190;21.226;2023-02-23T19:31:01;100018.40;;;0.76;100.00
43691;BME280;29293;52.190;21.226;2023-02-23T19:47:11;99987.97;;;0.71;100.00
43691;BME280;29293;52.190;21.226;2023-02-23T20:02:59;99975.69;;;0.69;100.00
43691;BME280;29293;52.190;21.226;2023-02-23T20:18:15;99946.14;;;0.57;100.00
43691;BME280;29293;52.190;21.226;2023-02-23T20:33:37;99933.45;;;0.45;100.00
43691;BME280;29293;52.190;21.226;2023-02-23T20:48:52;99913.27;;;0.39;100.00
43691;BME280;29293;52.190;21.226;2023-02-23T21:04:09;99889.10;;;0.34;100.00
43691;BME280;29293;52.190;21.226;2023-02-23T21:19:24;99863.13;;;0.21;100.00
43691;BME280;29293;52.190;21.226;2023-02-23T21:35:15;99845.95;;;0.08;100.00
43691;BME280;29293;52.190;21.226;2023-02-23T21:50:26;99829.36;;;0.07;100.00
43691;BME280;29293;52.190;21.226;2023-02-23T22:05:38;99797.95;;;0.01;100.00
43691;BME280;29293;52.190;21.226;2023-02-23T22:20:47;99771.14;;;-0.06;100.00
43691;BME280;29293;52.190;21.226;2023-02-23T22:36:04;99745.91;;;-0.06;100.00
43691;BME280;29293;52.190;21.226;2023-02-23T22:51:19;99729.36;;;-0.02;100.00
43691;BME280;29293;52.190;21.226;2023-02-23T23:06:38;99711.27;;;0.04;100.00
43691;BME280;29293;52.190;21.226;2023-02-23T23:21:48;99688.45;;;0.13;100.00
43691;BME280;29293;52.190;21.226;2023-02-23T23:37:00;99664.10;;;0.17;100.00
43691;BME280;29293;52.190;21.226;2023-02-23T23:52:11;99651.11;;;0.20;100.00
